Time,TemperatureF,DewpointF,PressureIn,WindDirection,WindDirectionDegrees,WindSpeedMPH,WindSpeedGustMPH,Humidity,HourlyPrecipIn,Conditions,Clouds,dailyrainin,SoftwareType,DateUTC
2013-01-06 00:01:00,27.8,22.1,30.15,SW,236,0.0,0.0,79,0.00,CLR,,0.00,WeatherDisplay:10.37,2013-01-06 05:01:00,
2013-01-06 00:02:00,27.9,21.9,30.15,SW,236,0.0,0.0,78,0.00,CLR,,0.00,WeatherDisplay:10.37,2013-01-06 05:02:00,
2013-01-06 00:04:00,27.9,21.9,30.15,SW,236,0.0,0.0,78,0.00,CLR,,0.00,WeatherDisplay:10.37,2013-01-06 05:04:00,
2013-01-06 00:07:00,28.1,22.1,30.15,SW,236,0.0,0.0,78,0.00,CLR,,0.00,WeatherDisplay:10.37,2013-01-06 05:07:00,
2013-01-06 00:13:00,28.2,21.9,30.15,SW,236,0.0,0.0,77,0.00,CLR,,0.00,WeatherDisplay:10.37,2013-01-06 05:13:00,
2013-01-06 00:18:00,28.5,22.2,30.14,SW,236,0.0,0.0,77,0.00,CLR,,0.00,WeatherDisplay:10.37,2013-01-06 05:18:00,
2013-01-06 00:23:00,28.8,22.8,30.15,SW,236,0.0,0.0,78,0.00,CLR,,0.00,WeatherDisplay:10.37,2013-01-06 05:23:00,
2013-01-06 00:28:00,28.5,22.8,30.15,SW,236,0.0,0.0,79,0.00,CLR,,0.00,WeatherDisplay:10.37,2013-01-06 05:28:00,
2013-01-06 00:33:00,28.4,22.4,30.15,SW,236,0.0,0.0,78,0.00,CLR,,0.00,WeatherDisplay:10.37,2013-01-06 05:33:00,
2013-01-06 00:38:00,28.5,22.2,30.15,SW,236,0.0,0.0,77,0.00,CLR,,0.00,WeatherDisplay:10.37,2013-01-06 05:38:00,
2013-01-06 00:44:00,28.5,22.2,30.15,SW,236,0.0,0.0,77,0.00,CLR,,0.00,WeatherDisplay:10.37,2013-01-06 05:44:00,
2013-01-06 00:49:00,28.5,22.2,30.15,SW,236,0.0,0.0,77,0.00,CLR,,0.00,WeatherDisplay:10.37,2013-01-06 05:49:00,
2013-01-06 00:54:00,28.5,22.2,30.15,SW,236,0.0,0.0,77,0.00,CLR,,0.00,WeatherDisplay:10.37,2013-01-06 05:54:00,
2013-01-06 00:59:00,28.7,22.1,30.15,SW,233,0.0,0.0,76,0.00,CLR,,0.00,WeatherDisplay:10.37,2013-01-06 05:59:00,
2013-01-06 01:04:00,29.0,22.1,30.14,SW,229,0.0,0.0,75,0.00,CLR,,0.00,WeatherDisplay:10.37,2013-01-06 06:04:00,
2013-01-06 01:09:00,29.1,21.8,30.14,SW,229,0.0,0.0,74,0.00,CLR,,0.00,WeatherDisplay:10.37,2013-01-06 06:09:00,
2013-01-06 01:14:00,29.3,21.7,30.15,SSW,200,0.0,0.0,73,0.00,CLR,,0.00,WeatherDisplay:10.37,2013-01-06 06:14:00,
2013-01-06 01:19:00,29.1,21.8,30.15,SSW,199,0.0,0.0,74,0.00,CLR,,0.00,WeatherDisplay:10.37,2013-01-06 06:19:00,
2013-01-06 01:24:00,28.8,21.9,30.15,SSW,199,0.0,0.0,75,0.00,CLR,,0.00,WeatherDisplay:10.37,2013-01-06 06:24:00,
2013-01-06 01:29:00,28.8,21.9,30.15,SSW,196,0.0,0.0,75,0.00,CLR,,0.00,WeatherDisplay:10.37,2013-01-06 06:29:00,
2013-01-06 01:35:00,28.8,21.9,30.13,SSW,198,0.0,0.0,75,0.00,CLR,,0.00,WeatherDisplay:10.37,2013-01-06 06:35:00,
2013-01-06 01:40:00,29.0,21.7,30.13,SSW,198,0.0,0.0,74,0.00,CLR,,0.00,WeatherDisplay:10.37,2013-01-06 06:40:00,
2013-01-06 01:45:00,29.1,21.8,30.12,SSW,198,0.0,0.0,74,0.00,CLR,,0.00,WeatherDisplay:10.37,2013-01-06 06:45:00,
2013-01-06 01:50:00,29.1,21.8,30.13,SSW,198,0.0,0.0,74,0.00,CLR,,0.00,WeatherDisplay:10.37,2013-01-06 06:50:00,
2013-01-06 01:55:00,29.0,21.7,30.13,SSW,198,0.0,0.0,74,0.00,CLR,,0.00,WeatherDisplay:10.37,2013-01-06 06:55:00,
2013-01-06 02:00:00,29.0,21.7,30.13,SSW,198,0.0,0.0,74,0.00,CLR,,0.00,WeatherDisplay:10.37,2013-01-06 07:00:00,
2013-01-06 02:05:00,29.0,22.1,30.13,SSW,198,0.0,0.0,75,0.00,CLR,,0.00,WeatherDisplay:10.37,2013-01-06 07:05:00,
2013-01-06 02:10:00,29.0,22.1,30.13,SSW,198,0.0,0.0,75,0.00,CLR,,0.00,WeatherDisplay:10.37,2013-01-06 07:10:00,
2013-01-06 02:16:00,29.0,21.7,30.13,SSW,198,0.0,0.0,74,0.00,CLR,,0.00,WeatherDisplay:10.37,2013-01-06 07:16:00,
2013-01-06 02:21:00,29.0,21.7,30.13,SSW,198,0.0,0.0,74,0.00,CLR,,0.00,WeatherDisplay:10.37,2013-01-06 07:21:00,
2013-01-06 02:26:00,29.0,21.7,30.12,SSW,198,0.0,0.0,74,0.00,CLR,,0.00,WeatherDisplay:10.37,2013-01-06 07:26:00,
2013-01-06 02:31:00,29.1,22.2,30.12,SSW,198,0.0,0.0,75,0.00,CLR,,0.00,WeatherDisplay:10.37,2013-01-06 07:31:00,
2013-01-06 02:36:00,29.1,22.2,30.12,SSW,198,0.0,0.0,75,0.00,CLR,,0.00,WeatherDisplay:10.37,2013-01-06 07:36:00,
2013-01-06 02:41:00,29.1,21.8,30.12,SSW,198,0.0,0.0,74,0.00,CLR,,0.00,WeatherDisplay:10.37,2013-01-06 07:41:00,
2013-01-06 02:46:00,29.3,22.0,30.11,SSW,198,0.0,0.0,74,0.00,CLR,,0.00,WeatherDisplay:10.37,2013-01-06 07:46:00,
2013-01-06 02:51:00,29.4,22.5,30.11,SSW,198,0.0,0.0,75,0.00,CLR,,0.00,WeatherDisplay:10.37,2013-01-06 07:51:00,
2013-01-06 02:56:00,29.4,22.5,30.12,SSW,198,0.0,0.0,75,0.00,CLR,,0.00,WeatherDisplay:10.37,2013-01-06 07:56:00,
2013-01-06 03:02:00,29.4,22.5,30.11,SSW,198,0.0,0.0,75,0.00,CLR,,0.00,WeatherDisplay:10.37,2013-01-06 08:02:00,
2013-01-06 03:07:00,29.4,22.1,30.11,SSW,198,0.0,0.0,74,0.00,CLR,,0.00,WeatherDisplay:10.37,2013-01-06 08:07:00,
2013-01-06 03:12:00,29.4,22.1,30.10,SSW,198,0.0,0.0,74,0.00,CLR,,0.00,WeatherDisplay:10.37,2013-01-06 08:12:00,
2013-01-06 03:17:00,29.5,22.2,30.10,SSW,198,0.0,0.0,74,0.00,CLR,,0.00,WeatherDisplay:10.37,2013-01-06 08:17:00,
2013-01-06 03:22:00,29.3,22.7,30.10,SSW,198,0.0,0.0,76,0.00,CLR,,0.00,WeatherDisplay:10.37,2013-01-06 08:22:00,
2013-01-06 03:27:00,29.1,22.2,30.10,SSW,198,0.0,0.0,75,0.00,CLR,,0.00,WeatherDisplay:10.37,2013-01-06 08:27:00,
2013-01-06 03:32:00,29.0,22.1,30.10,SSW,198,0.0,0.0,75,0.00,CLR,,0.00,WeatherDisplay:10.37,2013-01-06 08:32:00,
2013-01-06 03:37:00,29.3,22.0,30.09,SW,224,0.6,1.2,74,0.00,CLR,,0.00,WeatherDisplay:10.37,2013-01-06 08:37:00,
2013-01-06 03:42:00,29.7,22.1,30.09,SW,224,0.0,0.0,73,0.00,CLR,,0.00,WeatherDisplay:10.37,2013-01-06 08:42:00,
2013-01-06 03:48:00,29.8,22.2,30.08,SW,226,0.0,0.0,73,0.00,CLR,,0.00,WeatherDisplay:10.37,2013-01-06 08:48:00,
2013-01-06 03:53:00,29.8,22.2,30.08,SW,226,0.0,0.0,73,0.00,CLR,,0.00,WeatherDisplay:10.37,2013-01-06 08:53:00,
2013-01-06 03:58:00,29.8,22.2,30.08,SW,226,0.0,0.0,73,0.00,CLR,,0.00,WeatherDisplay:10.37,2013-01-06 08:58:00,
2013-01-06 04:03:00,29.8,22.2,30.07,SW,226,0.0,0.0,73,0.00,CLR,,0.00,WeatherDisplay:10.37,2013-01-06 09:03:00,
2013-01-06 04:08:00,29.8,22.5,30.07,SW,226,0.0,0.0,74,0.00,CLR,,0.00,WeatherDisplay:10.37,2013-01-06 09:08:00,
2013-01-06 04:13:00,29.8,22.5,30.07,SW,226,0.0,0.0,74,0.00,CLR,,0.00,WeatherDisplay:10.37,2013-01-06 09:13:00,
2013-01-06 04:18:00,29.8,22.5,30.07,SW,226,0.0,0.0,74,0.00,CLR,,0.00,WeatherDisplay:10.37,2013-01-06 09:18:00,
2013-01-06 04:23:00,30.0,23.0,30.07,SW,226,0.0,0.0,75,0.00,CLR,,0.00,WeatherDisplay:10.37,2013-01-06 09:23:00,
2013-01-06 04:28:00,30.0,23.0,30.07,SW,226,0.0,0.0,75,0.00,CLR,,0.00,WeatherDisplay:10.37,2013-01-06 09:28:00,
2013-01-06 04:33:00,30.0,23.0,30.07,SW,226,0.0,0.0,75,0.00,CLR,,0.00,WeatherDisplay:10.37,2013-01-06 09:33:00,
2013-01-06 04:38:00,30.1,23.4,30.06,SW,227,0.0,0.0,76,0.00,CLR,,0.00,WeatherDisplay:10.37,2013-01-06 09:38:00,
2013-01-06 04:44:00,30.4,23.7,30.05,SSW,198,0.5,0.0,76,0.00,CLR,,0.00,WeatherDisplay:10.37,2013-01-06 09:44:00,
2013-01-06 04:49:00,30.6,23.9,30.05,South,179,0.6,1.2,76,0.00,CLR,,0.00,WeatherDisplay:10.37,2013-01-06 09:49:00,
2013-01-06 04:54:00,30.7,24.0,30.05,South,184,0.7,2.3,76,0.00,CLR,,0.00,WeatherDisplay:10.37,2013-01-06 09:54:00,
2013-01-06 04:59:00,30.7,24.0,30.05,South,185,0.5,2.3,76,0.00,CLR,,0.00,WeatherDisplay:10.37,2013-01-06 09:59:00,
2013-01-06 05:04:00,30.7,24.3,30.05,SSW,200,0.0,0.0,77,0.00,CLR,,0.00,WeatherDisplay:10.37,2013-01-06 10:04:00,
2013-01-06 05:09:00,30.9,24.5,30.05,SW,222,0.9,3.5,77,0.00,CLR,,0.00,WeatherDisplay:10.37,2013-01-06 10:09:00,
2013-01-06 05:14:00,30.9,24.5,30.05,SW,219,0.3,3.5,77,0.00,CLR,,0.00,WeatherDisplay:10.37,2013-01-06 10:14:00,
2013-01-06 05:19:00,30.9,24.5,30.05,SW,219,0.2,3.5,77,0.00,CLR,,0.00,WeatherDisplay:10.37,2013-01-06 10:19:00,
2013-01-06 05:24:00,30.9,24.8,30.05,SSW,205,0.0,0.0,78,0.00,CLR,,0.00,WeatherDisplay:10.37,2013-01-06 10:24:00,
2013-01-06 05:30:00,30.9,24.8,30.05,South,189,0.8,2.3,78,0.00,CLR,,0.00,WeatherDisplay:10.37,2013-01-06 10:30:00,
2013-01-06 05:35:00,30.7,24.7,30.05,SSW,195,0.9,2.3,78,0.00,CLR,,0.00,WeatherDisplay:10.37,2013-01-06 10:35:00,
2013-01-06 05:40:00,30.7,24.7,30.05,SSW,200,0.3,1.2,78,0.00,CLR,,0.00,WeatherDisplay:10.37,2013-01-06 10:40:00,
2013-01-06 05:45:00,30.6,24.9,30.05,SSW,199,0.0,0.0,79,0.00,CLR,,0.00,WeatherDisplay:10.37,2013-01-06 10:45:00,
2013-01-06 05:50:00,30.6,24.9,30.05,SSW,203,0.0,0.0,79,0.00,CLR,,0.00,WeatherDisplay:10.37,2013-01-06 10:50:00,
2013-01-06 05:55:00,30.6,24.9,30.05,SSW,206,0.0,0.0,79,0.00,CLR,,0.00,WeatherDisplay:10.37,2013-01-06 10:55:00,
2013-01-06 06:00:00,30.6,25.2,30.05,SSW,209,0.0,0.0,80,0.00,CLR,,0.00,WeatherDisplay:10.37,2013-01-06 11:00:00,
2013-01-06 06:06:00,30.6,25.2,30.05,SSW,212,0.0,0.0,80,0.00,CLR,,0.00,WeatherDisplay:10.37,2013-01-06 11:06:00,
2013-01-06 06:11:00,30.6,25.2,30.05,SSW,212,0.0,0.0,80,0.00,CLR,,0.00,WeatherDisplay:10.37,2013-01-06 11:11:00,
2013-01-06 06:16:00,30.6,25.5,30.05,SSW,212,0.0,0.0,81,0.00,CLR,,0.00,WeatherDisplay:10.37,2013-01-06 11:16:00,
2013-01-06 06:21:00,30.6,25.5,30.05,SSW,202,0.0,0.0,81,0.00,CLR,,0.00,WeatherDisplay:10.37,2013-01-06 11:21:00,
2013-01-06 06:26:00,30.6,25.5,30.05,SSW,202,0.0,0.0,81,0.00,CLR,,0.00,WeatherDisplay:10.37,2013-01-06 11:26:00,
2013-01-06 06:31:00,30.6,25.5,30.05,SSW,213,0.9,3.5,81,0.00,CLR,,0.00,WeatherDisplay:10.37,2013-01-06 11:31:00,
2013-01-06 06:36:00,30.6,25.8,30.05,SSW,203,1.0,2.3,82,0.00,CLR,,0.00,WeatherDisplay:10.37,2013-01-06 11:36:00,
2013-01-06 06:42:00,30.4,25.6,30.05,SSW,199,1.4,3.5,82,0.00,CLR,,0.00,WeatherDisplay:10.37,2013-01-06 11:42:00,
2013-01-06 06:47:00,30.4,25.6,30.05,SSW,200,0.5,1.2,82,0.00,CLR,,0.00,WeatherDisplay:10.37,2013-01-06 11:47:00,
2013-01-06 06:52:00,30.4,25.9,30.05,SSW,202,1.0,3.5,83,0.00,CLR,,0.00,WeatherDisplay:10.37,2013-01-06 11:52:00,
2013-01-06 06:57:00,30.4,25.9,30.05,SSW,205,0.0,2.0,83,0.00,CLR,,0.00,WeatherDisplay:10.37,2013-01-06 11:57:00,
2013-01-06 07:03:00,30.6,26.1,30.05,SSW,208,0.0,0.0,83,0.00,CLR,,0.00,WeatherDisplay:10.37,2013-01-06 12:03:00,
2013-01-06 07:08:00,30.6,26.3,30.04,SSW,212,0.0,0.0,84,0.00,CLR,,0.00,WeatherDisplay:10.37,2013-01-06 12:08:00,
2013-01-06 07:13:00,30.7,26.4,30.05,SW,215,0.0,0.0,84,0.00,CLR,,0.00,WeatherDisplay:10.37,2013-01-06 12:13:00,
2013-01-06 07:18:00,30.7,26.7,30.05,SW,216,0.0,0.0,85,0.00,CLR,,0.00,WeatherDisplay:10.37,2013-01-06 12:18:00,
2013-01-06 07:23:00,30.9,26.9,30.05,SW,219,0.0,0.0,85,0.00,CLR,,0.00,WeatherDisplay:10.37,2013-01-06 12:23:00,
2013-01-06 07:28:00,30.9,26.9,30.05,SW,220,0.0,0.0,85,0.00,CLR,,0.00,WeatherDisplay:10.37,2013-01-06 12:28:00,
2013-01-06 07:34:00,30.9,27.2,30.05,SW,222,0.0,2.3,86,0.00,CLR,,0.00,WeatherDisplay:10.37,2013-01-06 12:34:00,
2013-01-06 07:39:00,30.9,27.2,30.04,SW,222,0.0,0.0,86,0.00,CLR,,0.00,WeatherDisplay:10.37,2013-01-06 12:39:00,
2013-01-06 07:44:00,30.9,27.2,30.05,SW,224,0.0,0.0,86,0.00,CLR,,0.00,WeatherDisplay:10.37,2013-01-06 12:44:00,
2013-01-06 07:49:00,30.9,27.2,30.05,SW,223,0.0,0.0,86,0.00,CLR,,0.00,WeatherDisplay:10.37,2013-01-06 12:49:00,
2013-01-06 07:54:00,30.9,27.5,30.05,SW,223,0.0,0.0,87,0.00,CLR,,0.00,WeatherDisplay:10.37,2013-01-06 12:54:00,
2013-01-06 08:00:00,30.9,27.5,30.04,SW,222,0.0,0.0,87,0.00,CLR,,0.00,WeatherDisplay:10.37,2013-01-06 13:00:00,
2013-01-06 08:05:00,30.9,27.5,30.04,SW,222,0.0,0.0,87,0.00,CLR,,0.00,WeatherDisplay:10.37,2013-01-06 13:05:00,
2013-01-06 08:10:00,30.9,27.5,30.05,SW,222,0.1,1.2,87,0.00,CLR,,0.00,WeatherDisplay:10.37,2013-01-06 13:10:00,
2013-01-06 08:15:00,31.0,27.6,30.05,SW,216,0.0,1.2,87,0.00,CLR,,0.00,WeatherDisplay:10.37,2013-01-06 13:15:00,
2013-01-06 08:20:00,31.0,27.6,30.04,SSW,200,0.9,3.5,87,0.00,CLR,,0.00,WeatherDisplay:10.37,2013-01-06 13:20:00,
2013-01-06 08:25:00,31.2,28.1,30.04,SSW,208,0.8,3.5,88,0.00,CLR,,0.00,WeatherDisplay:10.37,2013-01-06 13:25:00,
2013-01-06 08:30:00,31.2,28.1,30.04,SW,227,0.3,3.5,88,0.00,CLR,,0.00,WeatherDisplay:10.37,2013-01-06 13:30:00,
2013-01-06 08:36:00,31.3,28.2,30.04,SW,222,0.0,0.0,88,0.00,CLR,,0.00,WeatherDisplay:10.37,2013-01-06 13:36:00,
2013-01-06 08:41:00,31.3,28.2,30.04,SSW,209,0.0,0.0,88,0.00,CLR,,0.00,WeatherDisplay:10.37,2013-01-06 13:41:00,
2013-01-06 08:46:00,31.5,28.4,30.04,SW,222,1.7,4.6,88,0.00,CLR,,0.00,WeatherDisplay:10.37,2013-01-06 13:46:00,
2013-01-06 08:51:00,31.5,28.4,30.05,SW,230,1.2,4.6,88,0.00,CLR,,0.00,WeatherDisplay:10.37,2013-01-06 13:51:00,
2013-01-06 08:56:00,31.5,28.4,30.04,SW,229,2.0,3.5,88,0.00,CLR,,0.00,WeatherDisplay:10.37,2013-01-06 13:56:00,
2013-01-06 09:02:00,31.6,28.2,30.04,SW,232,0.7,3.5,87,0.00,CLR,,0.00,WeatherDisplay:10.37,2013-01-06 14:02:00,
2013-01-06 09:07:00,31.6,28.2,30.04,SW,232,0.0,1.2,87,0.00,CLR,,0.00,WeatherDisplay:10.37,2013-01-06 14:07:00,
2013-01-06 09:12:00,31.6,28.2,30.04,West,264,2.1,4.6,87,0.00,CLR,,0.00,WeatherDisplay:10.37,2013-01-06 14:12:00,
2013-01-06 09:17:00,31.6,28.2,30.05,WSW,239,1.8,3.5,87,0.00,CLR,,0.00,WeatherDisplay:10.37,2013-01-06 14:17:00,
2013-01-06 09:22:00,31.8,28.4,30.05,SW,217,2.7,4.6,87,0.00,CLR,,0.00,WeatherDisplay:10.37,2013-01-06 14:22:00,
2013-01-06 09:27:00,31.9,28.5,30.05,SW,232,4.9,8.1,87,0.00,CLR,,0.00,WeatherDisplay:10.37,2013-01-06 14:27:00,
2013-01-06 09:33:00,32.2,28.8,30.04,South,184,3.3,8.1,87,0.00,CLR,,0.00,WeatherDisplay:10.37,2013-01-06 14:33:00,
2013-01-06 09:38:00,32.5,28.8,30.04,SSW,202,1.4,5.8,86,0.00,CLR,,0.00,WeatherDisplay:10.37,2013-01-06 14:38:00,
2013-01-06 09:43:00,32.8,28.8,30.05,SSW,199,3.0,7.0,85,0.00,CLR,,0.00,WeatherDisplay:10.37,2013-01-06 14:43:00,
2013-01-06 09:48:00,32.8,28.8,30.05,South,186,2.4,3.5,85,0.00,CLR,,0.00,WeatherDisplay:10.37,2013-01-06 14:48:00,
2013-01-06 09:53:00,32.9,28.9,30.05,South,186,1.0,3.5,85,0.00,CLR,,0.00,WeatherDisplay:10.37,2013-01-06 14:53:00,
2013-01-06 09:58:00,33.1,29.1,30.05,SW,224,3.2,5.8,85,0.00,CLR,,0.00,WeatherDisplay:10.37,2013-01-06 14:58:00,
2013-01-06 10:04:00,33.2,28.9,30.04,SSW,202,2.2,5.8,84,0.00,CLR,,0.00,WeatherDisplay:10.37,2013-01-06 15:04:00,
2013-01-06 10:09:00,33.5,29.2,30.04,South,189,0.2,1.2,84,0.00,CLR,,0.00,WeatherDisplay:10.37,2013-01-06 15:09:00,
2013-01-06 10:14:00,34.0,29.4,30.04,SW,229,3.4,6.9,83,0.00,CLR,,0.00,WeatherDisplay:10.37,2013-01-06 15:14:00,
2013-01-06 10:19:00,34.1,29.2,30.04,SW,232,0.4,1.0,82,0.00,CLR,,0.00,WeatherDisplay:10.37,2013-01-06 15:19:00,
2013-01-06 10:24:00,34.4,29.5,30.04,SW,217,0.0,0.0,82,0.00,CLR,,0.00,WeatherDisplay:10.37,2013-01-06 15:24:00,
2013-01-06 10:30:00,34.6,29.4,30.04,SSW,210,2.0,7.0,81,0.00,CLR,,0.00,WeatherDisplay:10.37,2013-01-06 15:30:00,
2013-01-06 10:35:00,34.6,29.1,30.03,SW,217,2.2,6.0,80,0.00,CLR,,0.00,WeatherDisplay:10.37,2013-01-06 15:35:00,
2013-01-06 10:40:00,34.4,28.6,30.03,South,188,2.3,4.6,79,0.00,CLR,,0.00,WeatherDisplay:10.37,2013-01-06 15:40:00,
2013-01-06 10:45:00,34.9,29.4,30.02,South,188,1.2,3.5,80,0.00,CLR,,0.00,WeatherDisplay:10.37,2013-01-06 15:45:00,
2013-01-06 10:51:00,35.3,29.1,30.02,South,188,2.4,4.6,78,0.00,CLR,,0.00,WeatherDisplay:10.37,2013-01-06 15:51:00,
2013-01-06 10:56:00,35.8,29.6,30.02,SSW,200,0.0,0.0,78,0.00,CLR,,0.00,WeatherDisplay:10.37,2013-01-06 15:56:00,
2013-01-06 11:01:00,36.3,29.5,30.01,SSW,208,2.4,4.6,76,0.00,CLR,,0.00,WeatherDisplay:10.37,2013-01-06 16:01:00,
2013-01-06 11:06:00,36.6,29.4,30.01,SW,219,0.9,3.0,75,0.00,CLR,,0.00,WeatherDisplay:10.37,2013-01-06 16:06:00,
2013-01-06 11:11:00,37.2,29.7,30.01,South,188,2.4,4.0,74,0.00,CLR,,0.00,WeatherDisplay:10.37,2013-01-06 16:11:00,
2013-01-06 11:16:00,37.0,29.1,30.01,SW,220,4.2,6.9,73,0.00,CLR,,0.00,WeatherDisplay:10.37,2013-01-06 16:16:00,
2013-01-06 11:22:00,37.6,29.4,30.00,SSW,206,3.0,5.8,72,0.00,CLR,,0.00,WeatherDisplay:10.37,2013-01-06 16:22:00,
2013-01-06 11:27:00,37.6,29.4,29.99,SSW,206,0.6,1.2,72,0.00,CLR,,0.00,WeatherDisplay:10.37,2013-01-06 16:27:00,
2013-01-06 11:32:00,38.5,29.2,29.99,WSW,247,0.4,5.8,69,0.00,CLR,,0.00,WeatherDisplay:10.37,2013-01-06 16:32:00,
2013-01-06 11:37:00,39.5,29.1,29.99,NNW,328,2.6,6.0,66,0.00,CLR,,0.00,WeatherDisplay:10.37,2013-01-06 16:37:00,
2013-01-06 11:43:00,39.5,27.5,29.98,SW,220,4.3,5.8,62,0.00,CLR,,0.00,WeatherDisplay:10.37,2013-01-06 16:43:00,
2013-01-06 11:48:00,40.1,26.9,29.98,WSW,253,4.9,11.0,59,0.00,CLR,,0.00,WeatherDisplay:10.37,2013-01-06 16:48:00,
2013-01-06 11:53:00,40.1,27.3,29.97,SSW,209,7.5,13.8,60,0.00,CLR,,0.00,WeatherDisplay:10.37,2013-01-06 16:53:00,
2013-01-06 11:58:00,40.6,27.0,29.97,WNW,282,3.1,6.9,58,0.00,CLR,,0.00,WeatherDisplay:10.37,2013-01-06 16:58:00,
2013-01-06 12:03:00,40.9,26.8,29.97,West,281,1.3,5.8,57,0.00,CLR,,0.00,WeatherDisplay:10.37,2013-01-06 17:03:00,
2013-01-06 12:08:00,40.8,26.7,29.97,SSW,210,6.1,11.0,57,0.00,CLR,,0.00,WeatherDisplay:10.37,2013-01-06 17:08:00,
2013-01-06 12:14:00,40.6,26.1,29.96,WSW,240,3.5,5.8,56,0.00,CLR,,0.00,WeatherDisplay:10.37,2013-01-06 17:14:00,
2013-01-06 12:19:00,40.8,26.7,29.96,WSW,248,4.7,8.1,57,0.00,CLR,,0.00,WeatherDisplay:10.37,2013-01-06 17:19:00,
2013-01-06 12:24:00,41.2,27.1,29.96,WNW,289,4.6,10.4,57,0.00,CLR,,0.00,WeatherDisplay:10.37,2013-01-06 17:24:00,
2013-01-06 12:29:00,40.9,26.4,29.96,NW,306,3.2,5.8,56,0.00,CLR,,0.00,WeatherDisplay:10.37,2013-01-06 17:29:00,
2013-01-06 12:34:00,41.1,27.0,29.96,South,174,3.5,8.1,57,0.00,CLR,,0.00,WeatherDisplay:10.37,2013-01-06 17:34:00,
2013-01-06 12:40:00,41.3,27.2,29.95,West,280,3.1,8.1,57,0.00,CLR,,0.00,WeatherDisplay:10.37,2013-01-06 17:40:00,
2013-01-06 12:45:00,41.6,26.6,29.95,SSW,200,2.3,5.8,55,0.00,CLR,,0.00,WeatherDisplay:10.37,2013-01-06 17:45:00,
2013-01-06 12:50:00,41.5,27.0,29.95,WSW,247,2.3,3.5,56,0.00,CLR,,0.00,WeatherDisplay:10.37,2013-01-06 17:50:00,
2013-01-06 12:55:00,41.6,26.6,29.95,SW,236,4.0,11.5,55,0.00,CLR,,0.00,WeatherDisplay:10.37,2013-01-06 17:55:00,
2013-01-06 13:01:00,41.6,26.6,29.94,SW,215,2.5,9.2,55,0.00,CLR,,0.00,WeatherDisplay:10.37,2013-01-06 18:01:00,
2013-01-06 13:06:00,41.9,26.4,29.94,NW,309,3.0,8.0,54,0.00,CLR,,0.00,WeatherDisplay:10.37,2013-01-06 18:06:00,
2013-01-06 13:11:00,41.9,26.9,29.94,SSW,203,1.7,6.9,55,0.00,CLR,,0.00,WeatherDisplay:10.37,2013-01-06 18:11:00,
2013-01-06 13:16:00,42.3,26.8,29.94,WNW,284,4.7,10.4,54,0.00,CLR,,0.00,WeatherDisplay:10.37,2013-01-06 18:16:00,
2013-01-06 13:21:00,41.9,26.4,29.93,WSW,256,3.5,5.8,54,0.00,CLR,,0.00,WeatherDisplay:10.37,2013-01-06 18:21:00,
2013-01-06 13:26:00,41.8,26.8,29.93,West,278,4.4,9.2,55,0.00,CLR,,0.00,WeatherDisplay:10.37,2013-01-06 18:26:00,
2013-01-06 13:32:00,41.9,26.9,29.93,WSW,243,2.4,4.6,55,0.00,CLR,,0.00,WeatherDisplay:10.37,2013-01-06 18:32:00,
2013-01-06 13:37:00,42.1,27.1,29.93,SW,224,2.5,6.9,55,0.00,CLR,,0.00,WeatherDisplay:10.37,2013-01-06 18:37:00,
2013-01-06 13:42:00,42.2,27.2,29.92,WSW,246,2.4,4.6,55,0.00,CLR,,0.00,WeatherDisplay:10.37,2013-01-06 18:42:00,
2013-01-06 13:47:00,42.3,27.7,29.92,West,263,2.1,6.0,56,0.00,CLR,,0.00,WeatherDisplay:10.37,2013-01-06 18:47:00,
2013-01-06 13:52:00,42.5,27.5,29.92,WNW,295,1.3,5.0,55,0.00,CLR,,0.00,WeatherDisplay:10.37,2013-01-06 18:52:00,
2013-01-06 13:58:00,42.3,27.3,29.92,West,278,2.7,5.8,55,0.00,CLR,,0.00,WeatherDisplay:10.37,2013-01-06 18:58:00,
2013-01-06 14:03:00,42.6,27.1,29.92,West,275,1.1,3.5,54,0.00,CLR,,0.00,WeatherDisplay:10.37,2013-01-06 19:03:00,
2013-01-06 14:08:00,42.8,26.8,29.92,SW,236,1.9,6.9,53,0.00,CLR,,0.00,WeatherDisplay:10.37,2013-01-06 19:08:00,
2013-01-06 14:13:00,42.8,26.8,29.92,West,268,3.1,5.8,53,0.00,CLR,,0.00,WeatherDisplay:10.37,2013-01-06 19:13:00,
2013-01-06 14:18:00,42.3,26.8,29.92,WSW,247,1.6,7.0,54,0.00,CLR,,0.00,WeatherDisplay:10.37,2013-01-06 19:18:00,
2013-01-06 14:23:00,41.9,27.3,29.92,SW,234,1.5,3.5,56,0.00,CLR,,0.00,WeatherDisplay:10.37,2013-01-06 19:23:00,
2013-01-06 14:28:00,41.6,27.1,29.92,SW,233,3.1,6.9,56,0.00,CLR,,0.00,WeatherDisplay:10.37,2013-01-06 19:28:00,
2013-01-06 14:34:00,41.6,27.5,29.92,SW,236,1.9,4.6,57,0.00,CLR,,0.00,WeatherDisplay:10.37,2013-01-06 19:34:00,
2013-01-06 14:39:00,41.8,27.7,29.92,West,275,0.7,2.3,57,0.00,CLR,,0.00,WeatherDisplay:10.37,2013-01-06 19:39:00,
2013-01-06 14:44:00,41.9,27.3,29.92,SW,230,0.8,5.0,56,0.00,CLR,,0.00,WeatherDisplay:10.37,2013-01-06 19:44:00,
2013-01-06 14:49:00,41.8,27.2,29.92,West,275,0.3,5.0,56,0.00,CLR,,0.00,WeatherDisplay:10.37,2013-01-06 19:49:00,
2013-01-06 14:56:00,41.6,27.5,29.92,WSW,240,0.2,3.5,57,0.00,CLR,,0.00,WeatherDisplay:10.37,2013-01-06 19:56:00,
2013-01-06 15:02:00,41.6,27.5,29.92,SW,227,2.8,2.8,57,0.00,CLR,,0.00,WeatherDisplay:10.37,2013-01-06 20:02:00,
2013-01-06 15:07:00,41.5,27.4,29.92,SW,223,1.2,5.8,57,0.00,CLR,,0.00,WeatherDisplay:10.37,2013-01-06 20:07:00,
2013-01-06 15:11:00,41.3,27.2,29.92,WSW,240,5.7,6.9,57,0.00,CLR,,0.00,WeatherDisplay:10.37,2013-01-06 20:11:00,
2013-01-06 15:14:00,41.3,27.2,29.92,SSW,209,2.7,8.1,57,0.00,CLR,,0.00,WeatherDisplay:10.37,2013-01-06 20:14:00,
2013-01-06 15:19:00,41.1,27.0,29.92,SW,227,2.2,5.8,57,0.00,CLR,,0.00,WeatherDisplay:10.37,2013-01-06 20:19:00,
2013-01-06 15:24:00,40.9,27.2,29.92,South,189,3.3,10.4,58,0.00,CLR,,0.00,WeatherDisplay:10.37,2013-01-06 20:24:00,
2013-01-06 15:29:00,40.8,27.6,29.92,SW,223,0.9,0.0,59,0.00,CLR,,0.00,WeatherDisplay:10.37,2013-01-06 20:29:00,
2013-01-06 15:35:00,40.6,27.4,29.92,SSW,213,2.2,4.6,59,0.00,CLR,,0.00,WeatherDisplay:10.37,2013-01-06 20:35:00,
2013-01-06 15:40:00,40.5,27.3,29.92,SSW,210,0.0,0.0,59,0.00,CLR,,0.00,WeatherDisplay:10.37,2013-01-06 20:40:00,
2013-01-06 15:45:00,40.3,27.1,29.92,SW,226,2.9,5.8,59,0.00,CLR,,0.00,WeatherDisplay:10.37,2013-01-06 20:45:00,
2013-01-06 15:50:00,40.3,27.1,29.92,SW,230,1.2,2.3,59,0.00,CLR,,0.00,WeatherDisplay:10.37,2013-01-06 20:50:00,
2013-01-06 15:55:00,40.5,27.3,29.92,SW,229,3.0,4.6,59,0.00,CLR,,0.00,WeatherDisplay:10.37,2013-01-06 20:55:00,
2013-01-06 16:00:00,40.3,27.1,29.92,SW,226,2.6,6.9,59,0.00,CLR,,0.00,WeatherDisplay:10.37,2013-01-06 21:00:00,
2013-01-06 16:05:00,40.3,27.1,29.92,SW,227,0.9,2.3,59,0.00,CLR,,0.00,WeatherDisplay:10.37,2013-01-06 21:05:00,
2013-01-06 16:10:00,40.3,27.1,29.92,SW,224,0.0,0.0,59,0.00,CLR,,0.00,WeatherDisplay:10.37,2013-01-06 21:10:00,
2013-01-06 16:15:00,40.2,27.0,29.92,SW,233,0.0,0.0,59,0.00,CLR,,0.00,WeatherDisplay:10.37,2013-01-06 21:15:00,
2013-01-06 16:21:00,40.1,26.9,29.92,SW,236,1.0,4.6,59,0.00,CLR,,0.00,WeatherDisplay:10.37,2013-01-06 21:21:00,
2013-01-06 16:26:00,39.8,26.6,29.92,SW,216,1.6,3.5,59,0.00,CLR,,0.00,WeatherDisplay:10.37,2013-01-06 21:26:00,
2013-01-06 16:31:00,39.6,26.8,29.93,SW,234,0.0,0.0,60,0.00,CLR,,0.00,WeatherDisplay:10.37,2013-01-06 21:31:00,
2013-01-06 16:36:00,39.3,26.6,29.93,WSW,244,0.0,0.0,60,0.00,CLR,,0.00,WeatherDisplay:10.37,2013-01-06 21:36:00,
2013-01-06 16:41:00,39.2,26.5,29.93,West,267,0.2,4.6,60,0.00,CLR,,0.00,WeatherDisplay:10.37,2013-01-06 21:41:00,
2013-01-06 16:46:00,39.2,26.5,29.93,WSW,243,2.0,3.5,60,0.00,CLR,,0.00,WeatherDisplay:10.37,2013-01-06 21:46:00,
2013-01-06 16:51:00,39.2,26.5,29.93,SW,227,1.2,5.8,60,0.00,CLR,,0.00,WeatherDisplay:10.37,2013-01-06 21:51:00,
2013-01-06 16:56:00,39.3,26.6,29.94,SW,234,0.9,0.0,60,0.00,CLR,,0.00,WeatherDisplay:10.37,2013-01-06 21:56:00,
2013-01-06 17:02:00,39.3,26.6,29.94,SW,226,1.4,3.5,60,0.00,CLR,,0.00,WeatherDisplay:10.37,2013-01-06 22:02:00,
2013-01-06 17:07:00,39.3,26.6,29.94,WSW,254,0.2,3.5,60,0.00,CLR,,0.00,WeatherDisplay:10.37,2013-01-06 22:07:00,
2013-01-06 17:12:00,39.3,26.6,29.94,SW,230,2.4,6.9,60,0.00,CLR,,0.00,WeatherDisplay:10.37,2013-01-06 22:12:00,
2013-01-06 17:18:00,39.3,26.6,29.94,SW,223,2.7,3.5,60,0.00,CLR,,0.00,WeatherDisplay:10.37,2013-01-06 22:18:00,
2013-01-06 17:23:00,39.2,26.5,29.94,WSW,240,1.6,7.0,60,0.00,CLR,,0.00,WeatherDisplay:10.37,2013-01-06 22:23:00,
2013-01-06 17:28:00,39.1,26.4,29.94,WSW,250,1.4,3.5,60,0.00,CLR,,0.00,WeatherDisplay:10.37,2013-01-06 22:28:00,
2013-01-06 17:33:00,39.1,26.0,29.94,WNW,292,1.1,0.0,59,0.00,CLR,,0.00,WeatherDisplay:10.37,2013-01-06 22:33:00,
2013-01-06 17:38:00,39.1,26.0,29.94,WSW,244,0.4,4.0,59,0.00,CLR,,0.00,WeatherDisplay:10.37,2013-01-06 22:38:00,
2013-01-06 17:44:00,38.9,25.8,29.94,WSW,244,1.2,6.0,59,0.00,CLR,,0.00,WeatherDisplay:10.37,2013-01-06 22:44:00,
2013-01-06 17:49:00,38.9,25.8,29.95,WSW,250,0.0,0.0,59,0.00,CLR,,0.00,WeatherDisplay:10.37,2013-01-06 22:49:00,
2013-01-06 17:54:00,38.9,25.8,29.95,SW,234,1.0,5.8,59,0.00,CLR,,0.00,WeatherDisplay:10.37,2013-01-06 22:54:00,
2013-01-06 18:00:00,38.9,25.8,29.95,West,263,0.1,3.5,59,0.00,CLR,,0.00,WeatherDisplay:10.37,2013-01-06 23:00:00,
2013-01-06 18:05:00,38.9,26.2,29.95,WSW,257,1.5,3.5,60,0.00,CLR,,0.00,WeatherDisplay:10.37,2013-01-06 23:05:00,
2013-01-06 18:10:00,38.9,26.2,29.95,West,271,2.7,3.5,60,0.00,CLR,,0.00,WeatherDisplay:10.37,2013-01-06 23:10:00,
2013-01-06 18:15:00,38.9,26.2,29.95,WSW,253,1.0,3.5,60,0.00,CLR,,0.00,WeatherDisplay:10.37,2013-01-06 23:15:00,
2013-01-06 18:20:00,38.9,26.2,29.96,WSW,246,2.9,5.8,60,0.00,CLR,,0.00,WeatherDisplay:10.37,2013-01-06 23:20:00,
2013-01-06 18:25:00,38.9,26.2,29.96,SW,226,2.1,3.5,60,0.00,CLR,,0.00,WeatherDisplay:10.37,2013-01-06 23:25:00,
2013-01-06 18:30:00,38.9,26.2,29.96,WSW,244,0.7,3.5,60,0.00,CLR,,0.00,WeatherDisplay:10.37,2013-01-06 23:30:00,
2013-01-06 18:35:00,38.9,26.2,29.96,WSW,244,1.9,3.5,60,0.00,CLR,,0.00,WeatherDisplay:10.37,2013-01-06 23:35:00,
2013-01-06 18:41:00,38.9,26.2,29.96,SW,236,0.8,5.8,60,0.00,CLR,,0.00,WeatherDisplay:10.37,2013-01-06 23:41:00,
2013-01-06 18:46:00,38.9,26.2,29.96,SW,229,1.7,5.8,60,0.00,CLR,,0.00,WeatherDisplay:10.37,2013-01-06 23:46:00,
2013-01-06 18:51:00,38.9,26.2,29.96,SW,223,0.0,1.2,60,0.00,CLR,,0.00,WeatherDisplay:10.37,2013-01-06 23:51:00,
2013-01-06 18:56:00,38.9,26.2,29.96,WSW,248,0.0,2.3,60,0.00,CLR,,0.00,WeatherDisplay:10.37,2013-01-06 23:56:00,
2013-01-06 19:02:00,38.9,26.2,29.96,WSW,237,2.3,6.9,60,0.00,CLR,,0.00,WeatherDisplay:10.37,2013-01-07 00:02:00,
2013-01-06 19:07:00,39.1,26.4,29.96,WSW,253,1.2,3.5,60,0.00,CLR,,0.00,WeatherDisplay:10.37,2013-01-07 00:07:00,
2013-01-06 19:12:00,39.1,26.8,29.96,WSW,253,0.2,1.2,61,0.00,CLR,,0.00,WeatherDisplay:10.37,2013-01-07 00:12:00,
2013-01-06 19:17:00,39.1,26.8,29.97,WSW,256,0.4,2.3,61,0.00,CLR,,0.00,WeatherDisplay:10.37,2013-01-07 00:17:00,
2013-01-06 19:22:00,38.9,26.6,29.97,WNW,285,2.1,5.8,61,0.00,CLR,,0.00,WeatherDisplay:10.37,2013-01-07 00:22:00,
2013-01-06 19:27:00,39.1,26.8,29.96,West,263,1.4,2.3,61,0.00,CLR,,0.00,WeatherDisplay:10.37,2013-01-07 00:27:00,
2013-01-06 19:32:00,39.1,26.4,29.96,WSW,244,3.8,3.8,60,0.00,CLR,,0.00,WeatherDisplay:10.37,2013-01-07 00:32:00,
2013-01-06 19:37:00,39.2,26.5,29.97,SW,233,2.0,6.9,60,0.00,CLR,,0.00,WeatherDisplay:10.37,2013-01-07 00:37:00,
2013-01-06 19:43:00,39.2,26.5,29.97,SW,229,2.4,5.8,60,0.00,CLR,,0.00,WeatherDisplay:10.37,2013-01-07 00:43:00,
2013-01-06 19:48:00,39.2,26.9,29.97,NW,306,0.2,2.3,61,0.00,CLR,,0.00,WeatherDisplay:10.37,2013-01-07 00:48:00,
2013-01-06 19:53:00,39.1,26.8,29.97,WSW,243,0.8,3.5,61,0.00,CLR,,0.00,WeatherDisplay:10.37,2013-01-07 00:53:00,
2013-01-06 19:58:00,39.1,26.8,29.97,WSW,257,0.2,3.5,61,0.00,CLR,,0.00,WeatherDisplay:10.37,2013-01-07 00:58:00,
2013-01-06 20:04:00,39.1,26.8,29.97,WSW,248,0.0,0.0,61,0.00,CLR,,0.00,WeatherDisplay:10.37,2013-01-07 01:04:00,
2013-01-06 20:09:00,38.9,26.6,29.97,SW,236,1.1,2.3,61,0.00,CLR,,0.00,WeatherDisplay:10.37,2013-01-07 01:09:00,
2013-01-06 20:14:00,39.1,26.8,29.97,WSW,241,0.0,2.3,61,0.00,CLR,,0.00,WeatherDisplay:10.37,2013-01-07 01:14:00,
2013-01-06 20:19:00,39.1,26.8,29.97,WSW,257,0.7,2.3,61,0.00,CLR,,0.00,WeatherDisplay:10.37,2013-01-07 01:19:00,
2013-01-06 20:24:00,39.1,26.8,29.97,West,267,0.0,0.0,61,0.00,CLR,,0.00,WeatherDisplay:10.37,2013-01-07 01:24:00,
2013-01-06 20:29:00,39.1,26.8,29.97,West,270,0.3,2.3,61,0.00,CLR,,0.00,WeatherDisplay:10.37,2013-01-07 01:29:00,
2013-01-06 20:34:00,39.1,26.8,29.97,WNW,296,0.2,2.0,61,0.00,CLR,,0.00,WeatherDisplay:10.37,2013-01-07 01:34:00,
2013-01-06 20:39:00,39.1,26.8,29.97,West,281,1.2,3.5,61,0.00,CLR,,0.00,WeatherDisplay:10.37,2013-01-07 01:39:00,
2013-01-06 20:44:00,39.1,26.8,29.97,West,270,2.1,5.8,61,0.00,CLR,,0.00,WeatherDisplay:10.37,2013-01-07 01:44:00,
2013-01-06 20:49:00,39.1,26.8,29.97,West,280,0.7,3.5,61,0.00,CLR,,0.00,WeatherDisplay:10.37,2013-01-07 01:49:00,
2013-01-06 20:54:00,39.1,27.2,29.97,WNW,292,3.4,5.0,62,0.00,CLR,,0.00,WeatherDisplay:10.37,2013-01-07 01:54:00,
2013-01-06 20:59:00,39.1,26.8,29.97,West,267,1.4,6.9,61,0.00,CLR,,0.00,WeatherDisplay:10.37,2013-01-07 01:59:00,
2013-01-06 21:04:00,39.1,27.2,29.97,WNW,292,2.2,2.3,62,0.00,CLR,,0.00,WeatherDisplay:10.37,2013-01-07 02:04:00,
2013-01-06 21:10:00,38.9,27.0,29.97,WNW,296,2.1,4.6,62,0.00,CLR,,0.00,WeatherDisplay:10.37,2013-01-07 02:10:00,
2013-01-06 21:15:00,38.9,27.0,29.96,WNW,282,0.3,2.3,62,0.00,CLR,,0.00,WeatherDisplay:10.37,2013-01-07 02:15:00,
2013-01-06 21:20:00,38.8,26.9,29.96,WNW,284,5.6,8.1,62,0.00,CLR,,0.00,WeatherDisplay:10.37,2013-01-07 02:20:00,
2013-01-06 21:25:00,38.9,27.0,29.97,WNW,291,0.2,3.0,62,0.00,CLR,,0.00,WeatherDisplay:10.37,2013-01-07 02:25:00,
2013-01-06 21:30:00,38.9,27.0,29.97,WNW,284,2.7,6.9,62,0.00,CLR,,0.00,WeatherDisplay:10.37,2013-01-07 02:30:00,
2013-01-06 21:35:00,38.9,27.4,29.97,West,271,0.0,3.5,63,0.00,CLR,,0.00,WeatherDisplay:10.37,2013-01-07 02:35:00,
2013-01-06 21:40:00,38.8,27.3,29.97,WSW,256,1.0,4.6,63,0.00,CLR,,0.00,WeatherDisplay:10.37,2013-01-07 02:40:00,
2013-01-06 21:46:00,38.8,27.3,29.97,West,272,1.9,6.9,63,0.00,CLR,,0.00,WeatherDisplay:10.37,2013-01-07 02:46:00,
2013-01-06 21:51:00,38.8,27.3,29.97,West,272,0.0,2.3,63,0.00,CLR,,0.00,WeatherDisplay:10.37,2013-01-07 02:51:00,
2013-01-06 21:56:00,38.8,27.3,29.97,West,275,0.0,0.0,63,0.00,CLR,,0.00,WeatherDisplay:10.37,2013-01-07 02:56:00,
2013-01-06 22:01:00,38.5,27.4,29.98,West,281,0.9,3.5,64,0.00,CLR,,0.00,WeatherDisplay:10.37,2013-01-07 03:01:00,
2013-01-06 22:06:00,38.5,27.4,29.98,WSW,254,0.8,5.8,64,0.00,CLR,,0.00,WeatherDisplay:10.37,2013-01-07 03:06:00,
2013-01-06 22:11:00,38.6,27.5,29.98,WSW,254,2.1,5.8,64,0.00,CLR,,0.00,WeatherDisplay:10.37,2013-01-07 03:11:00,
2013-01-06 22:16:00,38.6,27.5,29.98,WSW,239,1.1,5.8,64,0.00,CLR,,0.00,WeatherDisplay:10.37,2013-01-07 03:16:00,
2013-01-06 22:21:00,38.5,27.4,29.98,West,271,0.1,2.3,64,0.00,CLR,,0.00,WeatherDisplay:10.37,2013-01-07 03:21:00,
2013-01-06 22:27:00,38.5,27.4,29.98,West,281,2.7,5.8,64,0.00,CLR,,0.00,WeatherDisplay:10.37,2013-01-07 03:27:00,
2013-01-06 22:32:00,38.5,27.4,29.98,SW,236,0.9,6.9,64,0.00,CLR,,0.00,WeatherDisplay:10.37,2013-01-07 03:32:00,
2013-01-06 22:37:00,38.3,27.2,29.98,West,263,0.0,0.0,64,0.00,CLR,,0.00,WeatherDisplay:10.37,2013-01-07 03:37:00,
2013-01-06 22:42:00,38.0,27.3,29.98,WSW,247,1.5,4.6,65,0.00,CLR,,0.00,WeatherDisplay:10.37,2013-01-07 03:42:00,
2013-01-06 22:47:00,37.9,27.2,29.98,WSW,244,0.9,4.6,65,0.00,CLR,,0.00,WeatherDisplay:10.37,2013-01-07 03:47:00,
2013-01-06 22:52:00,37.9,27.2,29.98,WSW,250,0.3,5.0,65,0.00,CLR,,0.00,WeatherDisplay:10.37,2013-01-07 03:52:00,
2013-01-06 22:57:00,37.9,27.2,29.98,WSW,246,1.2,0.0,65,0.00,CLR,,0.00,WeatherDisplay:10.37,2013-01-07 03:57:00,
2013-01-06 23:03:00,37.8,27.1,29.98,NW,308,1.4,3.5,65,0.00,CLR,,0.00,WeatherDisplay:10.37,2013-01-07 04:03:00,
2013-01-06 23:08:00,37.6,26.9,29.98,SSW,213,0.0,0.0,65,0.00,CLR,,0.00,WeatherDisplay:10.37,2013-01-07 04:08:00,
2013-01-06 23:13:00,37.5,26.8,29.99,WSW,243,0.0,0.0,65,0.00,CLR,,0.00,WeatherDisplay:10.37,2013-01-07 04:13:00,
2013-01-06 23:18:00,37.5,26.8,29.99,West,271,0.0,0.0,65,0.00,CLR,,0.00,WeatherDisplay:10.37,2013-01-07 04:18:00,
2013-01-06 23:23:00,37.5,26.8,29.99,SW,232,0.6,3.5,65,0.00,CLR,,0.00,WeatherDisplay:10.37,2013-01-07 04:23:00,
2013-01-06 23:28:00,37.6,26.9,29.99,WSW,254,0.0,0.0,65,0.00,CLR,,0.00,WeatherDisplay:10.37,2013-01-07 04:28:00,
2013-01-06 23:33:00,37.6,26.9,29.99,SW,232,0.8,5.0,65,0.00,CLR,,0.00,WeatherDisplay:10.37,2013-01-07 04:33:00,
2013-01-06 23:38:00,37.6,27.3,29.99,West,265,1.3,6.9,66,0.00,CLR,,0.00,WeatherDisplay:10.37,2013-01-07 04:38:00,
2013-01-06 23:44:00,37.8,27.5,30.00,WSW,250,3.9,3.9,66,0.00,CLR,,0.00,WeatherDisplay:10.37,2013-01-07 04:44:00,
2013-01-06 23:49:00,37.8,27.5,30.00,WSW,256,1.9,6.9,66,0.00,CLR,,0.00,WeatherDisplay:10.37,2013-01-07 04:49:00,
2013-01-06 23:54:00,37.5,27.2,30.00,WSW,258,0.2,2.3,66,0.00,CLR,,0.00,WeatherDisplay:10.37,2013-01-07 04:54:00,
2013-01-06 23:59:00,37.3,27.3,30.00,WSW,257,0.0,0.0,67,0.00,CLR,,0.00,WeatherDisplay:10.37,2013-01-07 04:59:00,